Private Wetterstation Wechselburg
Wetterdaten: Dienstag, 06.10.2015
Datum Zeit Temp. +2m Bodentemp. Temp.+5cm Temp. Wind Windchill X Diff Temp. Feuchte +2m Feuchte +5cm Sonnenschein Luftdruck Regen Wind Richtung Richtung Sonnenschein Taupunkt Windchill Windben
06.10.2015 00:00 9,2 C 24,2 C 10,2 C 9,6 C 9,6 C 0,4 C 86 % 89 % 0 % 1010,9 hPa 0,0 l/m 0,0 km/h (0 Bft) O-NO 67 0 min 7,0 C 9,6 C 0,0 km/h (0 Bft)
06.10.2015 00:05 9,2 C 24,2 C 10,2 C 9,6 C 9,6 C 0,4 C 86 % 89 % 0 % 1010,9 hPa 0,0 l/m 0,0 km/h (0 Bft) O-NO 67 0 min 7,0 C 9,6 C 0,0 km/h (0 Bft)
06.10.2015 00:10 9,2 C 24,2 C 10,1 C 9,6 C 9,6 C 0,4 C 87 % 89 % 0 % 1010,9 hPa 0,0 l/m 0,0 km/h (0 Bft) O-NO 67 0 min 7,2 C 9,6 C 0,0 km/h (0 Bft)
06.10.2015 00:15 9,3 C 24,2 C 10,1 C 9,6 C 9,6 C 0,3 C 87 % 89 % 0 % 1010,9 hPa 0,0 l/m 0,2 km/h (0 Bft) O-NO 67 0 min 7,2 C 9,6 C 0,0 km/h (0 Bft)
06.10.2015 00:20 9,3 C 24,2 C 10,0 C 9,6 C 9,6 C 0,3 C 87 % 89 % 0 % 1010,9 hPa 0,0 l/m 0,2 km/h (0 Bft) W-SW 247 0 min 7,2 C 9,6 C 0,0 km/h (0 Bft)
06.10.2015 00:25 9,0 C 24,2 C 10,0 C 9,4 C 9,4 C 0,4 C 87 % 89 % 0 % 1010,9 hPa 0,0 l/m 0,0 km/h (0 Bft) W-SW 247 0 min 7,0 C 9,4 C 0,0 km/h (0 Bft)
06.10.2015 00:30 8,9 C 24,2 C 10,0 C 9,1 C 9,1 C 0,2 C 86 % 89 % 0 % 1010,9 hPa 0,0 l/m 0,0 km/h (0 Bft) SW 225 0 min 6,7 C 9,1 C 0,0 km/h (0 Bft)
06.10.2015 00:35 8,8 C 24,2 C 9,9 C 8,8 C 8,8 C 0,0 C 86 % 89 % 0 % 1010,6 hPa 0,0 l/m 0,0 km/h (0 Bft) W-SW 247 0 min 6,6 C 8,8 C 0,0 km/h (0 Bft)
06.10.2015 00:41 8,7 C 24,2 C 9,6 C 8,9 C 8,9 C 0,2 C 87 % 90 % 0 % 1010,6 hPa 0,0 l/m 0,5 km/h (0 Bft) N 0 0 min 6,7 C 8,9 C 1,8 km/h (1 Bft)
06.10.2015 00:50 8,7 C 24,2 C 9,6 C 8,9 C 8,9 C 0,2 C 87 % 90 % 0 % 1010,6 hPa 0,0 l/m 0,3 km/h (0 Bft) O-NO 67 0 min 6,7 C 8,9 C 1,9 km/h (1 Bft)
06.10.2015 00:55 8,6 C 24,2 C 9,6 C 8,9 C 8,9 C 0,3 C 87 % 90 % 0 % 1010,6 hPa 0,0 l/m 0,0 km/h (0 Bft) SW 225 0 min 6,6 C 8,9 C 0,0 km/h (0 Bft)
06.10.2015 01:00 8,5 C 24,2 C 9,6 C 8,7 C 8,7 C 0,2 C 87 % 90 % 0 % 1010,6 hPa 0,0 l/m 0,0 km/h (0 Bft) SW 225 0 min 6,5 C 8,7 C 0,0 km/h (0 Bft)
06.10.2015 01:05 8,4 C 24,2 C 9,5 C 8,4 C 8,4 C 0,0 C 87 % 90 % 0 % 1010,6 hPa 0,0 l/m 0,0 km/h (0 Bft) SW 225 0 min 6,4 C 8,4 C 0,0 km/h (0 Bft)
06.10.2015 01:10 8,2 C 24,2 C 9,3 C 8,2 C 8,2 C 0,0 C 86 % 90 % 0 % 1010,6 hPa 0,0 l/m 0,0 km/h (0 Bft) SW 225 0 min 6,0 C 8,2 C 0,0 km/h (0 Bft)
06.10.2015 01:15 8,1 C 24,2 C 9,2 C 8,1 C 8,1 C 0,0 C 86 % 90 % 0 % 1010,4 hPa 0,0 l/m 0,0 km/h (0 Bft) N-NO 22 0 min 5,9 C 8,1 C 0,0 km/h (0 Bft)
06.10.2015 01:20 8,1 C 24,1 C 9,1 C 8,1 C 8,1 C 0,0 C 87 % 90 % 0 % 1010,4 hPa 0,0 l/m 0,0 km/h (0 Bft) O-NO 67 0 min 6,1 C 8,1 C 0,0 km/h (0 Bft)
06.10.2015 01:25 8,1 C 24,1 C 9,0 C 8,2 C 8,2 C 0,1 C 87 % 90 % 0 % 1010,4 hPa 0,0 l/m 0,0 km/h (0 Bft) O-NO 67 0 min 6,1 C 8,2 C 0,0 km/h (0 Bft)
06.10.2015 01:30 8,0 C 24,1 C 8,9 C 8,2 C 8,2 C 0,2 C 87 % 90 % 0 % 1010,4 hPa 0,0 l/m 0,0 km/h (0 Bft) O-NO 67 0 min 6,0 C 8,2 C 0,0 km/h (0 Bft)
06.10.2015 01:35 7,8 C 24,1 C 9,0 C 8,0 C 8,0 C 0,2 C 87 % 90 % 0 % 1010,2 hPa 0,0 l/m 0,0 km/h (0 Bft) O-NO 67 0 min 5,8 C 8,0 C 0,0 km/h (0 Bft)
06.10.2015 01:40 7,7 C 24,1 C 9,0 C 7,9 C 7,9 C 0,2 C 87 % 90 % 0 % 1010,2 hPa 0,0 l/m 0,0 km/h (0 Bft) NW 315 0 min 5,7 C 7,9 C 0,0 km/h (0 Bft)
06.10.2015 01:45 7,6 C 24,1 C 8,8 C 7,9 C 7,9 C 0,3 C 87 % 90 % 0 % 1010,2 hPa 0,0 l/m 0,0 km/h (0 Bft) NO 45 0 min 5,6 C 7,9 C 0,0 km/h (0 Bft)
06.10.2015 01:50 7,7 C 24,1 C 8,8 C 7,9 C 7,9 C 0,2 C 87 % 90 % 0 % 1010,2 hPa 0,0 l/m 0,0 km/h (0 Bft) O-NO 67 0 min 5,7 C 7,9 C 0,0 km/h (0 Bft)
06.10.2015 01:55 7,9 C 24,1 C 8,8 C 8,1 C 8,1 C 0,2 C 88 % 90 % 0 % 1010,3 hPa 0,0 l/m 0,0 km/h (0 Bft) O-NO 67 0 min 6,0 C 8,1 C 0,0 km/h (0 Bft)
06.10.2015 02:00 7,9 C 24,1 C 8,9 C 8,2 C 8,2 C 0,3 C 88 % 90 % 0 % 1010,3 hPa 0,0 l/m 0,0 km/h (0 Bft) O-NO 67 0 min 6,0 C 8,2 C 0,0 km/h (0 Bft)
06.10.2015 02:05 7,8 C 24,0 C 8,8 C 8,1 C 8,1 C 0,3 C 88 % 90 % 0 % 1010,3 hPa 0,0 l/m 0,0 km/h (0 Bft) NW 315 0 min 5,9 C 8,1 C 0,0 km/h (0 Bft)
06.10.2015 02:10 7,7 C 24,1 C 8,8 C 8,0 C 8,0 C 0,3 C 88 % 90 % 0 % 1010,3 hPa 0,0 l/m 0,0 km/h (0 Bft) N-NW 337 0 min 5,8 C 8,0 C 0,0 km/h (0 Bft)
06.10.2015 02:15 7,6 C 24,0 C 8,7 C 7,9 C 7,9 C 0,3 C 88 % 90 % 0 % 1010,0 hPa 0,0 l/m 0,0 km/h (0 Bft) N-NW 337 0 min 5,7 C 7,9 C 0,0 km/h (0 Bft)
06.10.2015 02:20 7,6 C 24,0 C 8,7 C 7,9 C 7,9 C 0,3 C 88 % 90 % 0 % 1010,0 hPa 0,0 l/m 0,0 km/h (0 Bft) N-NW 337 0 min 5,7 C 7,9 C 0,0 km/h (0 Bft)
06.10.2015 02:25 7,4 C 24,0 C 8,6 C 7,7 C 7,7 C 0,3 C 88 % 90 % 0 % 1010,0 hPa 0,0 l/m 0,0 km/h (0 Bft) N-NW 337 0 min 5,5 C 7,7 C 0,0 km/h (0 Bft)
06.10.2015 02:30 7,5 C 24,0 C 8,7 C 7,7 C 7,7 C 0,2 C 88 % 90 % 0 % 1010,0 hPa 0,0 l/m 0,0 km/h (0 Bft) SW 225 0 min 5,6 C 7,7 C 0,0 km/h (0 Bft)
06.10.2015 02:35 7,2 C 24,0 C 8,5 C 7,6 C 7,6 C 0,4 C 88 % 90 % 0 % 1009,8 hPa 0,0 l/m 0,0 km/h (0 Bft) SW 225 0 min 5,3 C 7,6 C 0,0 km/h (0 Bft)
06.10.2015 02:40 7,3 C 24,0 C 8,5 C 7,4 C 7,4 C 0,1 C 88 % 90 % 0 % 1009,8 hPa 0,0 l/m 0,0 km/h (0 Bft) SW 225 0 min 5,4 C 7,4 C 0,0 km/h (0 Bft)
06.10.2015 02:45 7,1 C 24,0 C 8,4 C 7,3 C 7,3 C 0,2 C 88 % 90 % 0 % 1009,8 hPa 0,0 l/m 0,0 km/h (0 Bft) SW 225 0 min 5,2 C 7,3 C 0,0 km/h (0 Bft)
06.10.2015 02:50 7,1 C 24,0 C 8,5 C 7,3 C 7,3 C 0,2 C 88 % 90 % 0 % 1009,8 hPa 0,0 l/m 0,0 km/h (0 Bft) SW 225 0 min 5,2 C 7,3 C 0,0 km/h (0 Bft)
06.10.2015 02:55 7,0 C 24,0 C 8,3 C 7,2 C 7,2 C 0,2 C 88 % 90 % 0 % 1009,7 hPa 0,0 l/m 0,0 km/h (0 Bft) SW 225 0 min 5,2 C 7,2 C 0,0 km/h (0 Bft)
06.10.2015 03:00 7,0 C 23,9 C 8,3 C 7,3 C 7,3 C 0,3 C 88 % 90 % 0 % 1009,7 hPa 0,0 l/m 0,0 km/h (0 Bft) SW 225 0 min 5,2 C 7,3 C 0,0 km/h (0 Bft)
06.10.2015 03:05 6,9 C 23,9 C 8,3 C 7,3 C 7,3 C 0,4 C 88 % 90 % 0 % 1009,7 hPa 0,0 l/m 0,0 km/h (0 Bft) SW 225 0 min 5,1 C 7,3 C 0,0 km/h (0 Bft)
06.10.2015 03:10 6,9 C 24,0 C 8,2 C 7,4 C 7,4 C 0,5 C 88 % 90 % 0 % 1009,7 hPa 0,0 l/m 0,0 km/h (0 Bft) SW 225 0 min 5,1 C 7,4 C 0,0 km/h (0 Bft)
06.10.2015 03:15 6,8 C 23,9 C 8,3 C 7,4 C 7,4 C 0,6 C 88 % 90 % 0 % 1009,6 hPa 0,0 l/m 0,0 km/h (0 Bft) SW 225 0 min 5,0 C 7,4 C 0,0 km/h (0 Bft)
06.10.2015 03:20 6,9 C 23,9 C 8,3 C 7,4 C 7,4 C 0,5 C 88 % 90 % 0 % 1009,6 hPa 0,0 l/m 0,0 km/h (0 Bft) NW 315 0 min 5,1 C 7,4 C 0,0 km/h (0 Bft)
06.10.2015 03:25 7,1 C 23,9 C 8,3 C 7,4 C 7,4 C 0,3 C 88 % 90 % 0 % 1009,6 hPa 0,0 l/m 0,0 km/h (0 Bft) NW 315 0 min 5,2 C 7,4 C 0,0 km/h (0 Bft)
06.10.2015 03:30 7,0 C 23,9 C 8,3 C 7,5 C 7,5 C 0,5 C 89 % 90 % 0 % 1009,6 hPa 0,0 l/m 0,0 km/h (0 Bft) NW 315 0 min 5,3 C 7,5 C 0,0 km/h (0 Bft)
06.10.2015 03:35 7,1 C 23,9 C 8,5 C 7,6 C 7,6 C 0,5 C 89 % 90 % 0 % 1009,2 hPa 0,0 l/m 0,0 km/h (0 Bft) W-SW 247 0 min 5,4 C 7,6 C 0,0 km/h (0 Bft)
06.10.2015 03:41 7,1 C 23,9 C 8,4 C 7,6 C 7,6 C 0,5 C 89 % 90 % 0 % 1009,2 hPa 0,0 l/m 0,0 km/h (0 Bft) N 0 0 min 5,4 C 7,6 C 0,0 km/h (0 Bft)
06.10.2015 03:50 7,2 C 23,9 C 8,5 C 7,8 C 7,8 C 0,6 C 89 % 90 % 0 % 1009,2 hPa 0,0 l/m 0,3 km/h (0 Bft) O-NO 67 0 min 5,5 C 7,8 C 1,9 km/h (1 Bft)
06.10.2015 03:55 7,5 C 23,9 C 8,5 C 8,0 C 8,0 C 0,5 C 89 % 90 % 0 % 1009,2 hPa 0,0 l/m 0,5 km/h (0 Bft) SW 225 0 min 5,8 C 8,0 C 2,1 km/h (1 Bft)
06.10.2015 04:00 7,4 C 23,9 C 8,6 C 8,1 C 8,1 C 0,7 C 89 % 90 % 0 % 1009,2 hPa 0,0 l/m 0,5 km/h (0 Bft) SW 225 0 min 5,7 C 8,1 C 0,0 km/h (0 Bft)
06.10.2015 04:05 7,3 C 23,9 C 8,5 C 8,1 C 8,1 C 0,8 C 89 % 90 % 0 % 1009,2 hPa 0,0 l/m 0,0 km/h (0 Bft) NO 45 0 min 5,6 C 8,1 C 0,0 km/h (0 Bft)
06.10.2015 04:10 7,3 C 23,9 C 8,5 C 8,1 C 8,1 C 0,8 C 89 % 90 % 0 % 1009,2 hPa 0,0 l/m 0,0 km/h (0 Bft) NO 45 0 min 5,6 C 8,1 C 0,0 km/h (0 Bft)
06.10.2015 04:15 7,5 C 23,9 C 8,7 C 8,1 C 8,1 C 0,6 C 90 % 90 % 0 % 1008,9 hPa 0,0 l/m 0,0 km/h (0 Bft) O-NO 67 0 min 6,0 C 8,1 C 0,0 km/h (0 Bft)
06.10.2015 04:20 7,6 C 23,9 C 8,7 C 8,4 C 8,4 C 0,8 C 90 % 89 % 0 % 1008,9 hPa 0,0 l/m 0,0 km/h (0 Bft) O-NO 67 0 min 6,1 C 8,4 C 0,0 km/h (0 Bft)
06.10.2015 04:25 7,7 C 23,9 C 8,8 C 8,6 C 8,6 C 0,9 C 90 % 90 % 0 % 1008,9 hPa 0,0 l/m 0,0 km/h (0 Bft) O-NO 67 0 min 6,2 C 8,6 C 0,0 km/h (0 Bft)
06.10.2015 04:30 7,6 C 23,8 C 8,8 C 8,6 C 8,6 C 1,0 C 90 % 90 % 0 % 1008,9 hPa 0,0 l/m 0,0 km/h (0 Bft) W-SW 247 0 min 6,1 C 8,6 C 0,0 km/h (0 Bft)
06.10.2015 04:35 7,7 C 23,8 C 8,8 C 8,5 C 8,5 C 0,8 C 90 % 90 % 0 % 1008,5 hPa 0,0 l/m 0,0 km/h (0 Bft) SW 225 0 min 6,2 C 8,5 C 0,0 km/h (0 Bft)
06.10.2015 04:40 7,6 C 23,8 C 8,8 C 8,4 C 8,4 C 0,8 C 90 % 90 % 0 % 1008,5 hPa 0,0 l/m 0,0 km/h (0 Bft) O-NO 67 0 min 6,1 C 8,4 C 0,0 km/h (0 Bft)
06.10.2015 04:45 7,8 C 23,8 C 8,9 C 8,6 C 8,6 C 0,8 C 90 % 90 % 0 % 1008,5 hPa 0,0 l/m 0,0 km/h (0 Bft) O-NO 67 0 min 6,3 C 8,6 C 0,0 km/h (0 Bft)
06.10.2015 04:50 7,9 C 23,8 C 9,1 C 8,8 C 8,8 C 0,9 C 90 % 90 % 0 % 1008,5 hPa 0,0 l/m 0,0 km/h (0 Bft) O-NO 67 0 min 6,4 C 8,8 C 0,0 km/h (0 Bft)
06.10.2015 04:55 7,9 C 23,8 C 9,1 C 9,1 C 9,1 C 1,2 C 90 % 90 % 0 % 1008,7 hPa 0,0 l/m 0,0 km/h (0 Bft) SW 225 0 min 6,4 C 9,1 C 0,0 km/h (0 Bft)
06.10.2015 05:00 8,0 C 23,8 C 9,1 C 9,1 C 9,1 C 1,1 C 90 % 90 % 0 % 1008,7 hPa 0,0 l/m 0,0 km/h (0 Bft) SW 225 0 min 6,5 C 9,1 C 0,0 km/h (0 Bft)
06.10.2015 05:05 8,1 C 23,8 C 9,3 C 9,1 C 9,1 C 1,0 C 90 % 90 % 0 % 1008,7 hPa 0,0 l/m 0,0 km/h (0 Bft) SW 225 0 min 6,6 C 9,1 C 0,0 km/h (0 Bft)
06.10.2015 05:10 8,3 C 23,8 C 9,2 C 9,3 C 9,3 C 1,0 C 90 % 90 % 0 % 1008,7 hPa 0,0 l/m 0,0 km/h (0 Bft) NO 45 0 min 6,8 C 9,3 C 0,0 km/h (0 Bft)
06.10.2015 05:15 8,5 C 23,8 C 9,5 C 9,6 C 9,6 C 1,1 C 91 % 89 % 0 % 1008,6 hPa 0,0 l/m 0,0 km/h (0 Bft) O-NO 67 0 min 7,1 C 9,6 C 0,0 km/h (0 Bft)
06.10.2015 05:20 8,5 C 23,8 C 9,5 C 9,8 C 9,8 C 1,3 C 91 % 89 % 0 % 1008,6 hPa 0,0 l/m 0,0 km/h (0 Bft) O-NO 67 0 min 7,1 C 9,8 C 0,0 km/h (0 Bft)
06.10.2015 05:25 8,7 C 23,8 C 9,5 C 9,9 C 9,9 C 1,2 C 91 % 89 % 0 % 1008,6 hPa 0,0 l/m 0,0 km/h (0 Bft) O-NO 67 0 min 7,3 C 9,9 C 0,0 km/h (0 Bft)
06.10.2015 05:30 8,7 C 23,8 C 9,5 C 9,9 C 9,9 C 1,2 C 91 % 89 % 0 % 1008,6 hPa 0,0 l/m 0,0 km/h (0 Bft) SW 225 0 min 7,3 C 9,9 C 0,0 km/h (0 Bft)
06.10.2015 05:35 8,6 C 23,8 C 9,3 C 9,5 C 9,5 C 0,9 C 91 % 90 % 0 % 1008,7 hPa 0,0 l/m 0,0 km/h (0 Bft) NO 45 0 min 7,2 C 9,5 C 0,0 km/h (0 Bft)
06.10.2015 05:40 8,5 C 23,8 C 9,3 C 9,3 C 9,3 C 0,8 C 90 % 90 % 0 % 1008,7 hPa 0,0 l/m 0,0 km/h (0 Bft) NO 45 0 min 7,0 C 9,3 C 0,0 km/h (0 Bft)
06.10.2015 05:45 8,5 C 23,8 C 9,5 C 9,4 C 9,4 C 0,9 C 90 % 90 % 0 % 1008,7 hPa 0,0 l/m 0,0 km/h (0 Bft) S 180 0 min 7,0 C 9,4 C 0,0 km/h (0 Bft)
06.10.2015 05:50 8,5 C 23,8 C 9,5 C 9,5 C 9,5 C 1,0 C 90 % 90 % 0 % 1008,7 hPa 0,0 l/m 0,0 km/h (0 Bft) NO 45 0 min 7,0 C 9,5 C 0,0 km/h (0 Bft)
06.10.2015 05:55 8,7 C 23,7 C 9,6 C 9,6 C 9,6 C 0,9 C 91 % 90 % 0 % 1008,9 hPa 0,0 l/m 0,0 km/h (0 Bft) SW 225 0 min 7,3 C 9,6 C 0,0 km/h (0 Bft)
06.10.2015 06:00 8,7 C 23,7 C 9,6 C 9,6 C 9,6 C 0,9 C 91 % 90 % 0 % 1008,9 hPa 0,0 l/m 0,0 km/h (0 Bft) SW 225 0 min 7,3 C 9,6 C 0,0 km/h (0 Bft)
06.10.2015 06:05 8,7 C 23,8 C 9,6 C 9,5 C 9,5 C 0,8 C 91 % 90 % 0 % 1008,9 hPa 0,0 l/m 0,0 km/h (0 Bft) O-NO 67 0 min 7,3 C 9,5 C 0,0 km/h (0 Bft)
06.10.2015 06:10 8,7 C 23,8 C 9,7 C 9,5 C 9,5 C 0,8 C 91 % 90 % 0 % 1008,9 hPa 0,0 l/m 0,0 km/h (0 Bft) O-NO 67 0 min 7,3 C 9,5 C 0,0 km/h (0 Bft)
06.10.2015 06:15 8,7 C 23,7 C 9,6 C 9,5 C 9,5 C 0,8 C 91 % 90 % 0 % 1008,6 hPa 0,0 l/m 0,0 km/h (0 Bft) W-SW 247 0 min 7,3 C 9,5 C 0,0 km/h (0 Bft)
06.10.2015 06:20 8,8 C 23,7 C 9,7 C 9,5 C 9,5 C 0,7 C 91 % 90 % 0 % 1008,6 hPa 0,0 l/m 0,0 km/h (0 Bft) W-SW 247 0 min 7,4 C 9,5 C 0,0 km/h (0 Bft)
06.10.2015 06:25 8,9 C 23,7 C 9,9 C 9,6 C 9,6 C 0,7 C 91 % 89 % 0 % 1008,6 hPa 0,0 l/m 0,0 km/h (0 Bft) W-SW 247 0 min 7,5 C 9,6 C 0,0 km/h (0 Bft)
06.10.2015 06:30 8,8 C 23,7 C 9,9 C 9,6 C 9,6 C 0,8 C 91 % 89 % 0 % 1008,6 hPa 0,0 l/m 0,0 km/h (0 Bft) W-SW 247 0 min 7,4 C 9,6 C 0,0 km/h (0 Bft)
06.10.2015 06:35 8,8 C 23,7 C 9,8 C 9,6 C 9,6 C 0,8 C 91 % 89 % 0 % 1008,6 hPa 0,0 l/m 0,0 km/h (0 Bft) W-SW 247 0 min 7,4 C 9,6 C 0,0 km/h (0 Bft)
06.10.2015 06:41 8,8 C 23,7 C 10,0 C 9,7 C 9,7 C 0,9 C 91 % 89 % 0 % 1008,6 hPa 0,0 l/m 0,0 km/h (0 Bft) N 0 0 min 7,4 C 9,7 C 0,0 km/h (0 Bft)
06.10.2015 06:50 8,8 C 23,7 C 10,0 C 9,7 C 9,7 C 0,9 C 91 % 89 % 0 % 1008,6 hPa 0,0 l/m 0,0 km/h (0 Bft) O-NO 67 0 min 7,4 C 9,7 C 0,0 km/h (0 Bft)
06.10.2015 06:55 9,1 C 23,7 C 10,0 C 9,8 C 9,8 C 0,7 C 91 % 89 % 0 % 1008,8 hPa 0,0 l/m 0,0 km/h (0 Bft) O-NO 67 0 min 7,7 C 9,8 C 0,0 km/h (0 Bft)
06.10.2015 07:00 9,0 C 23,7 C 10,1 C 9,8 C 9,8 C 0,8 C 91 % 89 % 0 % 1008,8 hPa 0,0 l/m 0,0 km/h (0 Bft) O-NO 67 0 min 7,6 C 9,8 C 0,0 km/h (0 Bft)
06.10.2015 07:05 9,1 C 23,7 C 10,1 C 9,9 C 9,9 C 0,8 C 91 % 89 % 0 % 1008,8 hPa 0,0 l/m 0,0 km/h (0 Bft) NO 45 0 min 7,7 C 9,9 C 0,0 km/h (0 Bft)
06.10.2015 07:10 9,3 C 23,7 C 10,2 C 9,9 C 9,9 C 0,6 C 91 % 89 % 0 % 1008,8 hPa 0,0 l/m 0,0 km/h (0 Bft) O-NO 67 0 min 7,9 C 9,9 C 1,6 km/h (1 Bft)
06.10.2015 07:15 9,3 C 23,7 C 10,2 C 10,0 C 10,0 C 0,7 C 91 % 89 % 0 % 1008,8 hPa 0,0 l/m 0,5 km/h (0 Bft) O-NO 67 0 min 7,9 C 10,0 C 0,0 km/h (0 Bft)
06.10.2015 07:20 9,5 C 23,7 C 10,3 C 10,1 C 10,1 C 0,6 C 91 % 89 % 0 % 1008,8 hPa 0,0 l/m 0,5 km/h (0 Bft) S 180 0 min 8,1 C 10,1 C 0,0 km/h (0 Bft)
06.10.2015 07:25 9,5 C 23,7 C 10,3 C 10,1 C 10,1 C 0,6 C 91 % 89 % 0 % 1008,8 hPa 0,0 l/m 0,0 km/h (0 Bft) NW 315 0 min 8,1 C 10,1 C 0,0 km/h (0 Bft)
06.10.2015 07:30 9,5 C 23,7 C 10,2 C 10,1 C 10,1 C 0,6 C 91 % 89 % 16 % 1008,8 hPa 0,0 l/m 0,0 km/h (0 Bft) W 270 5 min 8,1 C 10,1 C 0,0 km/h (0 Bft)
06.10.2015 07:35 9,4 C 23,7 C 10,2 C 10,1 C 10,1 C 0,7 C 91 % 89 % 18 % 1008,2 hPa 0,0 l/m 0,0 km/h (0 Bft) SW 225 5 min 8,0 C 10,1 C 0,0 km/h (0 Bft)
06.10.2015 07:40 9,5 C 23,7 C 10,2 C 10,0 C 10,0 C 0,5 C 91 % 90 % 13 % 1008,2 hPa 0,0 l/m 0,0 km/h (0 Bft) O-NO 67 5 min 8,1 C 10,0 C 0,0 km/h (0 Bft)
06.10.2015 07:45 9,4 C 23,7 C 10,2 C 10,2 C 10,2 C 0,8 C 91 % 89 % 21 % 1008,2 hPa 0,0 l/m 0,0 km/h (0 Bft) W-SW 247 5 min 8,0 C 10,2 C 0,0 km/h (0 Bft)
06.10.2015 07:50 9,4 C 23,7 C 10,2 C 10,2 C 10,2 C 0,8 C 91 % 89 % 21 % 1008,2 hPa 0,0 l/m 0,0 km/h (0 Bft) W 270 5 min 8,0 C 10,2 C 0,0 km/h (0 Bft)
06.10.2015 07:55 9,5 C 23,7 C 10,2 C 10,3 C 10,3 C 0,8 C 91 % 89 % 21 % 1008,4 hPa 0,0 l/m 0,0 km/h (0 Bft) W-SW 247 0 min 8,1 C 10,3 C 0,0 km/h (0 Bft)
06.10.2015 08:00 9,5 C 23,7 C 10,3 C 10,3 C 10,3 C 0,8 C 91 % 89 % 21 % 1008,4 hPa 0,0 l/m 0,0 km/h (0 Bft) W-NW 292 0 min 8,1 C 10,3 C 0,0 km/h (0 Bft)
06.10.2015 08:05 9,6 C 23,7 C 10,3 C 10,4 C 10,4 C 0,8 C 91 % 89 % 21 % 1008,4 hPa 0,0 l/m 0,0 km/h (0 Bft) W-NW 292 0 min 8,2 C 10,4 C 0,0 km/h (0 Bft)
06.10.2015 08:10 9,6 C 23,7 C 10,3 C 10,4 C 10,4 C 0,8 C 91 % 89 % 21 % 1008,4 hPa 0,0 l/m 0,0 km/h (0 Bft) W-SW 247 0 min 8,2 C 10,4 C 0,0 km/h (0 Bft)
06.10.2015 08:15 9,6 C 23,7 C 10,1 C 10,2 C 10,2 C 0,6 C 91 % 89 % 16 % 1008,7 hPa 0,0 l/m 0,0 km/h (0 Bft) W-SW 247 0 min 8,2 C 10,2 C 0,0 km/h (0 Bft)
06.10.2015 08:20 9,5 C 23,7 C 10,0 C 10,1 C 10,1 C 0,6 C 91 % 89 % 16 % 1008,7 hPa 0,0 l/m 0,2 km/h (0 Bft) O-NO 67 0 min 8,1 C 10,1 C 1,6 km/h (1 Bft)
06.10.2015 08:25 9,6 C 23,7 C 10,3 C 10,2 C 10,2 C 0,6 C 91 % 89 % 16 % 1008,7 hPa 0,0 l/m 0,5 km/h (0 Bft) O-NO 67 0 min 8,2 C 10,2 C 2,3 km/h (1 Bft)
06.10.2015 08:30 9,6 C 23,7 C 10,4 C 10,4 C 10,4 C 0,8 C 91 % 89 % 21 % 1008,7 hPa 0,0 l/m 0,5 km/h (0 Bft) O-NO 67 0 min 8,2 C 10,4 C 0,0 km/h (0 Bft)
06.10.2015 08:35 9,7 C 23,7 C 10,5 C 10,8 C 10,8 C 1,1 C 91 % 89 % 29 % 1008,5 hPa 0,0 l/m 0,0 km/h (0 Bft) O-NO 67 0 min 8,3 C 10,8 C 0,0 km/h (0 Bft)
06.10.2015 08:40 9,9 C 23,7 C 10,6 C 11,0 C 11,0 C 1,1 C 91 % 89 % 29 % 1008,5 hPa 0,0 l/m 0,0 km/h (0 Bft) O-NO 67 0 min 8,5 C 11,0 C 0,0 km/h (0 Bft)
06.10.2015 08:45 10,0 C 23,7 C 10,8 C 11,5 C 11,5 C 1,5 C 92 % 88 % 39 % 1008,5 hPa 0,0 l/m 0,0 km/h (0 Bft) W-SW 247 0 min 8,8 C 11,5 C 0,0 km/h (0 Bft)
06.10.2015 08:50 10,1 C 23,7 C 11,1 C 11,7 C 11,7 C 1,6 C 92 % 88 % 42 % 1008,5 hPa 0,0 l/m 0,0 km/h (0 Bft) W-SW 247 0 min 8,9 C 11,7 C 0,0 km/h (0 Bft)
06.10.2015 08:55 10,3 C 23,7 C 11,1 C 11,8 C 11,8 C 1,5 C 92 % 88 % 39 % 1008,3 hPa 0,0 l/m 0,0 km/h (0 Bft) W 270 0 min 9,1 C 11,8 C 0,0 km/h (0 Bft)
06.10.2015 09:00 10,4 C 23,7 C 10,9 C 11,6 C 11,6 C 1,2 C 92 % 88 % 32 % 1008,3 hPa 0,0 l/m 0,0 km/h (0 Bft) SW 225 0 min 9,2 C 11,6 C 0,0 km/h (0 Bft)
06.10.2015 09:05 10,5 C 23,7 C 11,0 C 11,5 C 11,5 C 1,0 C 92 % 88 % 26 % 1008,3 hPa 0,0 l/m 0,2 km/h (0 Bft) O-NO 67 0 min 9,3 C 11,5 C 2,1 km/h (1 Bft)
06.10.2015 09:10 10,4 C 23,7 C 11,1 C 11,4 C 11,4 C 1,0 C 92 % 88 % 26 % 1008,3 hPa 0,0 l/m 0,5 km/h (0 Bft) O-NO 67 0 min 9,2 C 11,4 C 0,0 km/h (0 Bft)
06.10.2015 09:15 10,7 C 23,7 C 11,3 C 11,8 C 11,8 C 1,1 C 92 % 87 % 29 % 1008,2 hPa 0,0 l/m 0,6 km/h (0 Bft) W-SW 247 0 min 9,5 C 11,8 C 2,7 km/h (1 Bft)
06.10.2015 09:20 10,7 C 23,7 C 11,4 C 12,0 C 12,0 C 1,3 C 92 % 87 % 34 % 1008,2 hPa 0,0 l/m 0,0 km/h (0 Bft) W-SW 247 0 min 9,5 C 12,0 C 0,0 km/h (0 Bft)
06.10.2015 09:25 10,9 C 23,6 C 11,6 C 12,2 C 12,2 C 1,3 C 92 % 87 % 34 % 1008,2 hPa 0,0 l/m 0,0 km/h (0 Bft) N-NO 22 0 min 9,7 C 12,2 C 0,0 km/h (0 Bft)
06.10.2015 09:30 11,0 C 23,6 C 11,7 C 12,5 C 12,5 C 1,5 C 92 % 87 % 39 % 1008,2 hPa 0,0 l/m 0,2 km/h (0 Bft) O-NO 67 0 min 9,8 C 12,5 C 1,8 km/h (1 Bft)
06.10.2015 09:35 11,5 C 23,8 C 11,9 C 12,8 C 12,8 C 1,3 C 92 % 86 % 34 % 1008,2 hPa 0,0 l/m 1,0 km/h (0 Bft) NO 45 0 min 10,2 C 12,8 C 4,5 km/h (1 Bft)
06.10.2015 09:41 11,8 C 23,8 C 12,2 C 13,0 C 13,0 C 1,2 C 92 % 84 % 32 % 1008,2 hPa 0,0 l/m 0,6 km/h (0 Bft) N 0 0 min 10,5 C 13,0 C 0,0 km/h (0 Bft)
06.10.2015 09:50 11,9 C 23,8 C 12,3 C 13,2 C 13,2 C 1,3 C 92 % 83 % 34 % 1008,2 hPa 0,0 l/m 0,3 km/h (0 Bft) N-NO 22 0 min 10,6 C 13,2 C 0,0 km/h (0 Bft)
06.10.2015 09:55 12,1 C 23,8 C 12,4 C 13,3 C 13,3 C 1,2 C 92 % 82 % 32 % 1008,2 hPa 0,0 l/m 0,0 km/h (0 Bft) N-NO 22 0 min 10,8 C 13,3 C 0,0 km/h (0 Bft)
06.10.2015 10:00 12,1 C 23,8 C 12,5 C 13,4 C 13,4 C 1,3 C 92 % 81 % 34 % 1008,2 hPa 0,0 l/m 0,0 km/h (0 Bft) N 360 0 min 10,8 C 13,4 C 0,0 km/h (0 Bft)
06.10.2015 10:05 12,2 C 23,8 C 12,7 C 13,4 C 13,4 C 1,2 C 92 % 81 % 32 % 1008,2 hPa 0,0 l/m 1,0 km/h (0 Bft) NO 45 0 min 10,9 C 13,4 C 5,1 km/h (1 Bft)
06.10.2015 10:10 12,3 C 23,7 C 12,6 C 13,6 C 13,6 C 1,3 C 93 % 81 % 34 % 1008,2 hPa 0,0 l/m 1,8 km/h (1 Bft) N-NO 22 0 min 11,2 C 13,6 C 4,3 km/h (1 Bft)
06.10.2015 10:15 12,5 C 23,7 C 12,7 C 13,9 C 13,9 C 1,4 C 92 % 80 % 37 % 1008,0 hPa 0,0 l/m 2,6 km/h (1 Bft) NO 45 0 min 11,2 C 13,9 C 5,5 km/h (1 Bft)
06.10.2015 10:20 12,7 C 23,7 C 12,9 C 14,2 C 14,2 C 1,5 C 92 % 80 % 39 % 1008,0 hPa 0,0 l/m 2,3 km/h (1 Bft) O 90 0 min 11,4 C 14,2 C 1,8 km/h (1 Bft)
06.10.2015 10:25 12,8 C 23,7 C 12,8 C 14,4 C 14,4 C 1,6 C 92 % 80 % 42 % 1008,0 hPa 0,0 l/m 2,6 km/h (1 Bft) NO 45 0 min 11,5 C 14,4 C 6,9 km/h (2 Bft)
06.10.2015 10:30 13,1 C 23,7 C 12,9 C 14,5 C 14,5 C 1,4 C 91 % 80 % 37 % 1008,0 hPa 0,0 l/m 3,4 km/h (1 Bft) O-NO 67 0 min 11,7 C 14,5 C 4,8 km/h (1 Bft)
06.10.2015 10:35 13,2 C 23,7 C 13,1 C 14,7 C 14,7 C 1,5 C 91 % 80 % 39 % 1007,9 hPa 0,0 l/m 2,6 km/h (1 Bft) NO 45 0 min 11,8 C 14,7 C 7,1 km/h (2 Bft)
06.10.2015 10:40 13,3 C 23,7 C 13,1 C 14,9 C 14,9 C 1,6 C 91 % 80 % 42 % 1007,9 hPa 0,0 l/m 1,6 km/h (1 Bft) NO 45 0 min 11,9 C 14,9 C 3,4 km/h (1 Bft)
06.10.2015 10:45 13,5 C 23,7 C 13,4 C 15,0 C 15,0 C 1,5 C 90 % 80 % 39 % 1007,9 hPa 0,0 l/m 2,6 km/h (1 Bft) NO 45 0 min 11,9 C 15,0 C 4,8 km/h (1 Bft)
06.10.2015 10:50 13,4 C 23,7 C 13,4 C 15,1 C 15,1 C 1,7 C 90 % 80 % 45 % 1007,9 hPa 0,0 l/m 3,1 km/h (1 Bft) O 90 0 min 11,8 C 15,1 C 1,8 km/h (1 Bft)
06.10.2015 10:55 13,6 C 23,7 C 13,5 C 15,2 C 15,2 C 1,6 C 90 % 80 % 42 % 1008,0 hPa 0,0 l/m 1,8 km/h (1 Bft) NO 45 0 min 12,0 C 15,2 C 2,4 km/h (1 Bft)
06.10.2015 11:00 13,6 C 23,7 C 13,6 C 15,4 C 15,4 C 1,8 C 90 % 80 % 47 % 1008,0 hPa 0,0 l/m 1,0 km/h (0 Bft) N-NW 337 0 min 12,0 C 15,4 C 0,0 km/h (0 Bft)
06.10.2015 11:05 13,9 C 23,7 C 13,7 C 15,8 C 15,8 C 1,9 C 89 % 80 % 50 % 1008,0 hPa 0,0 l/m 0,8 km/h (0 Bft) O 90 0 min 12,1 C 15,8 C 2,4 km/h (1 Bft)
06.10.2015 11:10 13,9 C 23,7 C 13,9 C 16,0 C 16,0 C 2,1 C 89 % 80 % 55 % 1008,0 hPa 0,0 l/m 0,8 km/h (0 Bft) NO 45 0 min 12,1 C 16,0 C 6,3 km/h (2 Bft)
06.10.2015 11:15 13,9 C 23,7 C 13,9 C 16,0 C 16,0 C 2,1 C 88 % 81 % 55 % 1008,0 hPa 0,0 l/m 1,6 km/h (1 Bft) N-NO 22 0 min 11,9 C 16,0 C 2,7 km/h (1 Bft)
06.10.2015 11:20 13,9 C 23,7 C 14,1 C 16,1 C 16,1 C 2,2 C 88 % 81 % 58 % 1008,0 hPa 0,0 l/m 1,9 km/h (1 Bft) NO 45 0 min 11,9 C 16,1 C 2,6 km/h (1 Bft)
06.10.2015 11:25 13,9 C 23,6 C 14,3 C 16,2 C 16,2 C 2,3 C 87 % 81 % 61 % 1008,0 hPa 0,0 l/m 1,3 km/h (1 Bft) O 90 0 min 11,8 C 16,2 C 0,0 km/h (0 Bft)
06.10.2015 11:30 14,0 C 23,6 C 14,2 C 16,5 C 16,5 C 2,5 C 87 % 81 % 66 % 1008,0 hPa 0,0 l/m 1,0 km/h (0 Bft) W-SW 247 0 min 11,9 C 16,5 C 0,0 km/h (0 Bft)
06.10.2015 11:35 14,1 C 23,6 C 14,4 C 16,7 C 16,7 C 2,6 C 87 % 82 % 68 % 1007,9 hPa 0,0 l/m 0,6 km/h (0 Bft) O-NO 67 0 min 12,0 C 16,7 C 1,9 km/h (1 Bft)
06.10.2015 11:40 14,0 C 23,6 C 14,4 C 16,5 C 16,5 C 2,5 C 86 % 82 % 66 % 1007,9 hPa 0,0 l/m 0,5 km/h (0 Bft) NO 45 0 min 11,7 C 16,5 C 3,7 km/h (1 Bft)
06.10.2015 11:45 14,1 C 23,6 C 14,6 C 16,5 C 16,5 C 2,4 C 86 % 82 % 63 % 1007,9 hPa 0,0 l/m 1,1 km/h (1 Bft) NO 45 0 min 11,8 C 16,5 C 0,0 km/h (0 Bft)
06.10.2015 11:50 14,0 C 23,6 C 14,6 C 16,5 C 16,5 C 2,5 C 86 % 82 % 66 % 1007,9 hPa 0,0 l/m 1,0 km/h (0 Bft) SO 135 0 min 11,7 C 16,5 C 0,0 km/h (0 Bft)
06.10.2015 11:55 14,1 C 23,6 C 14,8 C 16,7 C 16,7 C 2,6 C 86 % 82 % 68 % 1007,9 hPa 0,0 l/m 0,2 km/h (0 Bft) O-NO 67 0 min 11,8 C 16,7 C 0,0 km/h (0 Bft)
06.10.2015 12:00 14,2 C 23,7 C 14,8 C 16,9 C 16,9 C 2,7 C 85 % 83 % 71 % 1007,9 hPa 0,0 l/m 0,3 km/h (0 Bft) NO 45 0 min 11,7 C 16,9 C 3,5 km/h (1 Bft)
06.10.2015 12:05 14,3 C 23,5 C 14,8 C 16,8 C 16,8 C 2,5 C 85 % 83 % 66 % 1007,9 hPa 0,0 l/m 0,5 km/h (0 Bft) W-NW 292 0 min 11,8 C 16,8 C 0,0 km/h (0 Bft)
06.10.2015 12:10 14,2 C 23,5 C 14,7 C 16,8 C 16,8 C 2,6 C 85 % 83 % 68 % 1007,9 hPa 0,0 l/m 0,5 km/h (0 Bft) NO 45 0 min 11,7 C 16,8 C 0,0 km/h (0 Bft)
06.10.2015 12:15 14,3 C 23,5 C 14,7 C 16,5 C 16,5 C 2,2 C 84 % 83 % 58 % 1007,9 hPa 0,0 l/m 0,5 km/h (0 Bft) O 90 0 min 11,6 C 16,5 C 0,0 km/h (0 Bft)
06.10.2015 12:20 14,2 C 23,5 C 14,9 C 16,5 C 16,5 C 2,3 C 84 % 83 % 61 % 1007,9 hPa 0,0 l/m 0,5 km/h (0 Bft) NO 45 0 min 11,5 C 16,5 C 0,0 km/h (0 Bft)
06.10.2015 12:25 14,3 C 23,5 C 15,1 C 16,9 C 16,9 C 2,6 C 84 % 83 % 68 % 1007,9 hPa 0,0 l/m 0,6 km/h (0 Bft) O 90 0 min 11,6 C 16,9 C 0,0 km/h (0 Bft)
06.10.2015 12:30 14,4 C 23,5 C 15,3 C 17,0 C 17,0 C 2,6 C 83 % 83 % 68 % 1007,9 hPa 0,0 l/m 1,0 km/h (0 Bft) NO 45 0 min 11,5 C 17,0 C 3,5 km/h (1 Bft)
06.10.2015 12:35 14,3 C 23,6 C 15,4 C 16,9 C 16,9 C 2,6 C 82 % 84 % 68 % 1007,7 hPa 0,0 l/m 1,6 km/h (1 Bft) N-NO 22 0 min 11,3 C 16,9 C 1,9 km/h (1 Bft)
06.10.2015 12:41 14,3 C 23,5 C 15,4 C 16,9 C 16,9 C 2,6 C 82 % 86 % 68 % 1007,7 hPa 0,0 l/m 1,8 km/h (1 Bft) N 0 0 min 11,3 C 16,9 C 0,0 km/h (0 Bft)
06.10.2015 12:50 14,4 C 23,5 C 15,5 C 17,1 C 17,1 C 2,7 C 81 % 87 % 71 % 1007,7 hPa 0,0 l/m 1,6 km/h (1 Bft) SW 225 0 min 11,2 C 17,1 C 0,0 km/h (0 Bft)
06.10.2015 12:55 14,5 C 23,5 C 15,5 C 17,4 C 17,4 C 2,9 C 81 % 87 % 76 % 1007,6 hPa 0,0 l/m 0,6 km/h (0 Bft) S-SW 202 0 min 11,3 C 17,4 C 0,0 km/h (0 Bft)
06.10.2015 13:00 14,6 C 23,5 C 15,5 C 17,4 C 17,4 C 2,8 C 81 % 87 % 74 % 1007,6 hPa 0,0 l/m 0,2 km/h (0 Bft) O-NO 67 0 min 11,4 C 17,4 C 0,0 km/h (0 Bft)
06.10.2015 13:05 14,7 C 23,5 C 15,5 C 17,3 C 17,3 C 2,6 C 80 % 88 % 68 % 1007,6 hPa 0,0 l/m 0,5 km/h (0 Bft) NO 45 0 min 11,3 C 17,3 C 1,8 km/h (1 Bft)
06.10.2015 13:10 14,7 C 23,5 C 15,6 C 17,4 C 17,4 C 2,7 C 80 % 87 % 71 % 1007,6 hPa 0,0 l/m 1,1 km/h (1 Bft) O 90 0 min 11,3 C 17,4 C 1,6 km/h (1 Bft)
06.10.2015 13:15 14,8 C 23,3 C 15,9 C 17,8 C 17,8 C 3,0 C 80 % 88 % 79 % 1007,4 hPa 0,0 l/m 1,4 km/h (1 Bft) O-NO 67 0 min 11,4 C 17,8 C 2,1 km/h (1 Bft)
06.10.2015 13:20 14,9 C 23,3 C 16,0 C 18,1 C 18,1 C 3,2 C 80 % 88 % 84 % 1007,4 hPa 0,0 l/m 1,6 km/h (1 Bft) NO 45 0 min 11,5 C 18,1 C 6,6 km/h (2 Bft)
06.10.2015 13:25 15,2 C 23,4 C 16,4 C 19,3 C 19,3 C 4,1 C 79 % 88 % 100 % 1007,4 hPa 0,0 l/m 2,6 km/h (1 Bft) O-NO 67 5 min 11,6 C 19,3 C 8,0 km/h (2 Bft)
06.10.2015 13:30 15,3 C 23,3 C 16,7 C 21,0 C 21,0 C 5,7 C 78 % 89 % 100 % 1007,4 hPa 0,0 l/m 3,1 km/h (1 Bft) NO 45 5 min 11,5 C 21,0 C 3,4 km/h (1 Bft)
06.10.2015 13:35 15,7 C 23,3 C 16,8 C 21,4 C 21,4 C 5,7 C 78 % 89 % 100 % 1007,1 hPa 0,0 l/m 2,3 km/h (1 Bft) S-SW 202 5 min 11,9 C 21,4 C 3,2 km/h (1 Bft)
06.10.2015 13:40 16,0 C 23,3 C 16,9 C 21,3 C 21,3 C 5,3 C 77 % 89 % 100 % 1007,1 hPa 0,0 l/m 1,1 km/h (1 Bft) W 270 5 min 12,0 C 21,3 C 0,0 km/h (0 Bft)
06.10.2015 13:45 16,3 C 23,3 C 16,8 C 21,1 C 21,1 C 4,8 C 77 % 89 % 100 % 1007,1 hPa 0,0 l/m 0,8 km/h (0 Bft) N-NO 22 5 min 12,3 C 21,1 C 2,4 km/h (1 Bft)
06.10.2015 13:50 16,5 C 23,3 C 17,0 C 21,0 C 21,0 C 4,5 C 76 % 89 % 100 % 1007,1 hPa 0,0 l/m 0,8 km/h (0 Bft) S-SW 202 5 min 12,3 C 21,0 C 2,3 km/h (1 Bft)
06.10.2015 13:55 16,7 C 23,3 C 17,1 C 21,3 C 21,3 C 4,6 C 76 % 89 % 100 % 1007,2 hPa 0,0 l/m 1,0 km/h (0 Bft) SO 135 5 min 12,4 C 21,3 C 1,9 km/h (1 Bft)
06.10.2015 14:00 16,8 C 23,3 C 17,1 C 21,3 C 21,3 C 4,5 C 75 % 88 % 100 % 1007,2 hPa 0,0 l/m 0,8 km/h (0 Bft) O-NO 67 5 min 12,3 C 21,3 C 3,2 km/h (1 Bft)
06.10.2015 14:05 17,1 C 23,3 C 17,2 C 21,0 C 21,0 C 3,9 C 75 % 88 % 100 % 1007,2 hPa 0,0 l/m 0,6 km/h (0 Bft) NO 45 5 min 12,6 C 21,0 C 0,0 km/h (0 Bft)
06.10.2015 14:10 17,1 C 23,4 C 17,2 C 20,8 C 20,8 C 3,7 C 75 % 88 % 97 % 1007,2 hPa 0,0 l/m 0,3 km/h (0 Bft) NO 45 5 min 12,6 C 20,8 C 0,0 km/h (0 Bft)
06.10.2015 14:15 17,2 C 23,4 C 17,1 C 20,8 C 20,8 C 3,6 C 75 % 88 % 95 % 1007,2 hPa 0,0 l/m 0,2 km/h (0 Bft) N 360 5 min 12,7 C 20,8 C 1,9 km/h (1 Bft)
06.10.2015 14:20 17,4 C 23,4 C 17,2 C 20,7 C 20,7 C 3,3 C 74 % 87 % 87 % 1007,2 hPa 0,0 l/m 0,8 km/h (0 Bft) O-SO 112 5 min 12,7 C 20,7 C 3,5 km/h (1 Bft)
06.10.2015 14:25 17,2 C 23,4 C 17,4 C 20,5 C 20,5 C 3,3 C 74 % 87 % 87 % 1007,2 hPa 0,0 l/m 1,3 km/h (1 Bft) N 360 5 min 12,5 C 20,5 C 0,0 km/h (0 Bft)
06.10.2015 14:30 17,5 C 23,4 C 17,5 C 20,7 C 20,7 C 3,2 C 74 % 86 % 84 % 1007,2 hPa 0,0 l/m 1,1 km/h (1 Bft) O-NO 67 0 min 12,8 C 20,7 C 2,3 km/h (1 Bft)
06.10.2015 14:35 17,5 C 23,4 C 17,6 C 21,0 C 21,0 C 3,5 C 74 % 87 % 92 % 1006,8 hPa 0,0 l/m 0,8 km/h (0 Bft) O-NO 67 5 min 12,8 C 21,0 C 4,2 km/h (1 Bft)
06.10.2015 14:40 17,6 C 23,4 C 17,6 C 21,0 C 21,0 C 3,4 C 73 % 86 % 89 % 1006,8 hPa 0,0 l/m 1,1 km/h (1 Bft) W 270 5 min 12,7 C 21,0 C 0,0 km/h (0 Bft)
06.10.2015 14:45 17,9 C 23,4 C 17,8 C 21,3 C 21,3 C 3,4 C 73 % 86 % 89 % 1006,8 hPa 0,0 l/m 1,8 km/h (1 Bft) N-NW 337 5 min 13,0 C 21,3 C 2,1 km/h (1 Bft)
06.10.2015 14:50 17,9 C 23,4 C 17,9 C 21,5 C 21,5 C 3,6 C 73 % 85 % 95 % 1006,8 hPa 0,0 l/m 2,3 km/h (1 Bft) O-NO 67 5 min 13,0 C 21,5 C 3,7 km/h (1 Bft)
06.10.2015 14:55 17,9 C 23,4 C 17,8 C 22,1 C 22,1 C 4,2 C 73 % 85 % 100 % 1006,6 hPa 0,0 l/m 2,3 km/h (1 Bft) N-NW 337 5 min 13,0 C 22,1 C 0,0 km/h (0 Bft)
06.10.2015 15:00 17,8 C 23,5 C 17,8 C 22,1 C 22,1 C 4,3 C 73 % 85 % 100 % 1006,6 hPa 0,0 l/m 1,4 km/h (1 Bft) S 180 5 min 12,9 C 22,1 C 0,0 km/h (0 Bft)
06.10.2015 15:05 17,9 C 23,5 C 17,7 C 21,7 C 21,7 C 3,8 C 73 % 86 % 100 % 1006,6 hPa 0,0 l/m 0,0 km/h (0 Bft) N-NW 337 5 min 13,0 C 21,7 C 0,0 km/h (0 Bft)
06.10.2015 15:10 17,9 C 23,5 C 17,6 C 21,5 C 21,5 C 3,6 C 73 % 86 % 95 % 1006,6 hPa 0,0 l/m 0,0 km/h (0 Bft) N-NW 337 5 min 13,0 C 21,5 C 0,0 km/h (0 Bft)
06.10.2015 15:15 18,0 C 23,5 C 17,5 C 21,3 C 21,3 C 3,3 C 74 % 86 % 87 % 1006,4 hPa 0,0 l/m 0,0 km/h (0 Bft) O-NO 67 5 min 13,3 C 21,3 C 0,0 km/h (0 Bft)
06.10.2015 15:20 18,1 C 23,5 C 17,5 C 21,4 C 21,4 C 3,3 C 74 % 87 % 87 % 1006,4 hPa 0,0 l/m 0,0 km/h (0 Bft) S-SO 157 5 min 13,4 C 21,4 C 0,0 km/h (0 Bft)
06.10.2015 15:25 18,2 C 23,5 C 17,8 C 22,8 C 22,8 C 4,6 C 74 % 87 % 100 % 1006,4 hPa 0,0 l/m 0,0 km/h (0 Bft) O-NO 67 5 min 13,5 C 22,8 C 0,0 km/h (0 Bft)
06.10.2015 15:30 18,2 C 23,5 C 17,9 C 23,5 C 23,5 C 5,3 C 74 % 87 % 100 % 1006,4 hPa 0,0 l/m 0,3 km/h (0 Bft) SW 225 5 min 13,5 C 23,5 C 0,0 km/h (0 Bft)
06.10.2015 15:35 18,7 C 23,4 C 18,1 C 23,5 C 23,5 C 4,8 C 73 % 87 % 100 % 1006,4 hPa 0,0 l/m 0,3 km/h (0 Bft) O 90 5 min 13,8 C 23,5 C 0,0 km/h (0 Bft)
06.10.2015 15:41 19,1 C 23,5 C 18,3 C 22,6 C 22,6 C 3,5 C 72 % 87 % 92 % 1006,4 hPa 0,0 l/m 0,3 km/h (0 Bft) N 0 6 min 13,9 C 22,6 C 0,0 km/h (0 Bft)
06.10.2015 15:50 19,0 C 23,5 C 18,3 C 22,2 C 22,2 C 3,2 C 72 % 86 % 84 % 1006,4 hPa 0,0 l/m 0,3 km/h (0 Bft) NO 45 0 min 13,8 C 22,2 C 0,0 km/h (0 Bft)
06.10.2015 15:55 19,1 C 23,5 C 18,4 C 21,9 C 21,9 C 2,8 C 72 % 86 % 74 % 1006,4 hPa 0,0 l/m 0,5 km/h (0 Bft) N-NO 22 0 min 13,9 C 21,9 C 0,0 km/h (0 Bft)
06.10.2015 16:00 19,2 C 23,5 C 18,3 C 21,8 C 21,8 C 2,6 C 72 % 86 % 68 % 1006,4 hPa 0,0 l/m 0,5 km/h (0 Bft) N-NO 22 0 min 14,0 C 21,8 C 0,0 km/h (0 Bft)
06.10.2015 16:05 19,2 C 23,5 C 18,3 C 21,4 C 21,4 C 2,2 C 71 % 86 % 58 % 1006,4 hPa 0,0 l/m 1,0 km/h (0 Bft) NO 45 0 min 13,8 C 21,4 C 2,1 km/h (1 Bft)
06.10.2015 16:10 19,2 C 23,5 C 18,2 C 21,2 C 21,2 C 2,0 C 71 % 86 % 53 % 1006,4 hPa 0,0 l/m 1,1 km/h (1 Bft) W 270 0 min 13,8 C 21,2 C 0,0 km/h (0 Bft)
06.10.2015 16:15 19,1 C 23,5 C 18,2 C 21,0 C 21,0 C 1,9 C 72 % 86 % 50 % 1006,2 hPa 0,0 l/m 0,2 km/h (0 Bft) NO 45 0 min 13,9 C 21,0 C 1,6 km/h (1 Bft)
06.10.2015 16:20 19,2 C 23,6 C 18,3 C 20,9 C 20,9 C 1,7 C 71 % 86 % 45 % 1006,2 hPa 0,0 l/m 0,2 km/h (0 Bft) NO 45 0 min 13,8 C 20,9 C 0,0 km/h (0 Bft)
06.10.2015 16:25 19,2 C 23,6 C 18,3 C 20,9 C 20,9 C 1,7 C 72 % 86 % 45 % 1006,2 hPa 0,0 l/m 0,2 km/h (0 Bft) N-NO 22 0 min 14,0 C 20,9 C 0,0 km/h (0 Bft)
06.10.2015 16:30 19,2 C 23,6 C 18,1 C 21,0 C 21,0 C 1,8 C 71 % 85 % 47 % 1006,2 hPa 0,0 l/m 0,2 km/h (0 Bft) O-NO 67 0 min 13,8 C 21,0 C 1,6 km/h (1 Bft)
06.10.2015 16:35 19,2 C 23,6 C 18,3 C 20,9 C 20,9 C 1,7 C 71 % 85 % 45 % 1006,2 hPa 0,0 l/m 0,3 km/h (0 Bft) O-NO 67 0 min 13,8 C 20,9 C 0,0 km/h (0 Bft)
06.10.2015 16:40 19,2 C 23,6 C 18,1 C 21,0 C 21,0 C 1,8 C 71 % 85 % 47 % 1006,2 hPa 0,0 l/m 0,3 km/h (0 Bft) N-NO 22 0 min 13,8 C 21,0 C 0,0 km/h (0 Bft)
06.10.2015 16:45 19,2 C 23,6 C 18,1 C 21,0 C 21,0 C 1,8 C 71 % 85 % 47 % 1006,2 hPa 0,0 l/m 0,0 km/h (0 Bft) NO 45 0 min 13,8 C 21,0 C 0,0 km/h (0 Bft)
06.10.2015 16:50 19,3 C 23,6 C 18,1 C 21,0 C 21,0 C 1,7 C 71 % 85 % 45 % 1006,2 hPa 0,0 l/m 0,3 km/h (0 Bft) O-NO 67 0 min 13,9 C 21,0 C 1,8 km/h (1 Bft)
06.10.2015 16:55 19,3 C 23,6 C 18,2 C 20,8 C 20,8 C 1,5 C 71 % 85 % 39 % 1006,0 hPa 0,0 l/m 1,4 km/h (1 Bft) O-NO 67 0 min 13,9 C 20,8 C 2,3 km/h (1 Bft)
06.10.2015 17:00 19,1 C 23,6 C 18,3 C 20,6 C 20,6 C 1,5 C 71 % 85 % 39 % 1006,0 hPa 0,0 l/m 1,9 km/h (1 Bft) NO 45 0 min 13,7 C 20,6 C 1,6 km/h (1 Bft)
06.10.2015 17:05 19,0 C 23,7 C 18,2 C 20,4 C 20,4 C 1,4 C 72 % 85 % 37 % 1006,0 hPa 0,0 l/m 1,6 km/h (1 Bft) O-NO 67 0 min 13,8 C 20,4 C 1,6 km/h (1 Bft)
06.10.2015 17:10 19,1 C 23,7 C 18,1 C 20,4 C 20,4 C 1,3 C 72 % 85 % 34 % 1006,0 hPa 0,0 l/m 1,6 km/h (1 Bft) O-NO 67 0 min 13,9 C 20,4 C 3,4 km/h (1 Bft)
06.10.2015 17:15 19,0 C 23,7 C 18,0 C 20,2 C 20,2 C 1,2 C 72 % 85 % 32 % 1005,9 hPa 0,0 l/m 2,4 km/h (1 Bft) O-NO 67 0 min 13,8 C 20,2 C 2,9 km/h (1 Bft)
06.10.2015 17:20 18,9 C 23,7 C 18,0 C 20,2 C 20,2 C 1,3 C 72 % 85 % 34 % 1005,9 hPa 0,0 l/m 2,6 km/h (1 Bft) O-NO 67 0 min 13,7 C 20,2 C 2,9 km/h (1 Bft)
06.10.2015 17:25 18,9 C 23,7 C 18,0 C 20,0 C 20,0 C 1,1 C 72 % 85 % 29 % 1005,9 hPa 0,0 l/m 2,4 km/h (1 Bft) O-NO 67 0 min 13,7 C 20,0 C 3,1 km/h (1 Bft)
06.10.2015 17:30 18,9 C 23,7 C 18,1 C 19,9 C 19,9 C 1,0 C 72 % 85 % 26 % 1005,9 hPa 0,0 l/m 2,3 km/h (1 Bft) NO 45 0 min 13,7 C 19,9 C 2,9 km/h (1 Bft)
06.10.2015 17:35 18,6 C 23,7 C 17,9 C 19,6 C 19,6 C 1,0 C 72 % 85 % 26 % 1005,9 hPa 0,0 l/m 1,9 km/h (1 Bft) O 90 0 min 13,4 C 19,6 C 3,1 km/h (1 Bft)
06.10.2015 17:40 18,7 C 23,7 C 17,6 C 19,4 C 19,4 C 0,7 C 72 % 85 % 18 % 1005,9 hPa 0,0 l/m 1,9 km/h (1 Bft) O-NO 67 0 min 13,5 C 19,4 C 2,3 km/h (1 Bft)
06.10.2015 17:45 18,4 C 23,7 C 17,5 C 19,1 C 19,1 C 0,7 C 72 % 85 % 18 % 1005,9 hPa 0,0 l/m 2,3 km/h (1 Bft) O-NO 67 0 min 13,3 C 19,1 C 1,8 km/h (1 Bft)
06.10.2015 17:50 18,3 C 23,7 C 17,5 C 18,8 C 18,8 C 0,5 C 72 % 85 % 13 % 1005,9 hPa 0,0 l/m 1,4 km/h (1 Bft) O-NO 67 0 min 13,2 C 18,8 C 2,3 km/h (1 Bft)
06.10.2015 17:55 18,2 C 23,8 C 17,2 C 18,5 C 18,5 C 0,3 C 73 % 85 % 8 % 1006,0 hPa 0,0 l/m 1,1 km/h (1 Bft) O-NO 67 0 min 13,3 C 18,5 C 3,1 km/h (1 Bft)
06.10.2015 18:00 18,0 C 23,7 C 17,1 C 18,3 C 18,3 C 0,3 C 73 % 85 % 8 % 1006,0 hPa 0,0 l/m 1,3 km/h (1 Bft) O-NO 67 0 min 13,1 C 18,3 C 0,0 km/h (0 Bft)
06.10.2015 18:05 17,9 C 23,9 C 16,9 C 18,0 C 18,0 C 0,1 C 73 % 85 % 3 % 1006,0 hPa 0,0 l/m 1,6 km/h (1 Bft) O 90 0 min 13,0 C 18,0 C 3,1 km/h (1 Bft)
06.10.2015 18:10 17,6 C 23,9 C 16,8 C 17,9 C 17,9 C 0,3 C 73 % 85 % 8 % 1006,0 hPa 0,0 l/m 2,1 km/h (1 Bft) O-NO 67 0 min 12,7 C 17,9 C 2,6 km/h (1 Bft)
06.10.2015 18:15 17,5 C 23,9 C 16,8 C 17,8 C 17,8 C 0,3 C 74 % 85 % 8 % 1006,4 hPa 0,0 l/m 2,9 km/h (1 Bft) O 90 0 min 12,8 C 17,8 C 2,1 km/h (1 Bft)
06.10.2015 18:20 17,5 C 23,9 C 16,7 C 17,7 C 17,7 C 0,2 C 74 % 85 % 5 % 1006,4 hPa 0,0 l/m 2,4 km/h (1 Bft) O-NO 67 0 min 12,8 C 17,7 C 2,4 km/h (1 Bft)
06.10.2015 18:25 17,2 C 23,9 C 16,6 C 17,6 C 17,6 C 0,4 C 74 % 85 % 11 % 1006,4 hPa 0,0 l/m 1,6 km/h (1 Bft) N-NW 337 5 min 12,5 C 17,6 C 0,0 km/h (0 Bft)
06.10.2015 18:30 17,2 C 23,9 C 16,7 C 17,4 C 17,4 C 0,2 C 74 % 85 % 0 % 1006,4 hPa 0,0 l/m 1,3 km/h (1 Bft) O 90 0 min 12,5 C 17,4 C 4,3 km/h (1 Bft)
06.10.2015 18:35 17,1 C 23,9 C 16,5 C 17,3 C 17,3 C 0,2 C 75 % 85 % 0 % 1005,9 hPa 0,0 l/m 2,3 km/h (1 Bft) O-NO 67 0 min 12,6 C 17,3 C 6,4 km/h (2 Bft)
06.10.2015 18:41 16,8 C 23,9 C 16,3 C 17,0 C 17,0 C 0,2 C 75 % 85 % 0 % 1005,9 hPa 0,0 l/m 4,0 km/h (1 Bft) N 0 0 min 12,3 C 17,0 C 1,6 km/h (1 Bft)
06.10.2015 18:50 16,7 C 23,9 C 16,3 C 17,0 C 17,0 C 0,3 C 75 % 85 % 0 % 1005,9 hPa 0,0 l/m 3,2 km/h (1 Bft) NO 45 0 min 12,2 C 17,0 C 9,7 km/h (2 Bft)
06.10.2015 18:55 16,5 C 23,9 C 16,0 C 16,7 C 16,7 C 0,2 C 75 % 85 % 0 % 1006,3 hPa 0,0 l/m 2,9 km/h (1 Bft) O-NO 67 0 min 12,1 C 16,7 C 5,1 km/h (1 Bft)
06.10.2015 19:00 16,3 C 23,9 C 15,9 C 16,6 C 16,6 C 0,3 C 75 % 85 % 0 % 1006,3 hPa 0,0 l/m 2,3 km/h (1 Bft) O-NO 67 0 min 11,9 C 16,6 C 0,0 km/h (0 Bft)
06.10.2015 19:05 16,1 C 23,9 C 15,9 C 16,4 C 16,4 C 0,3 C 75 % 85 % 0 % 1006,3 hPa 0,0 l/m 2,6 km/h (1 Bft) NO 45 0 min 11,7 C 16,4 C 6,8 km/h (2 Bft)
06.10.2015 19:10 16,0 C 23,9 C 15,7 C 16,3 C 16,3 C 0,3 C 76 % 85 % 0 % 1006,3 hPa 0,0 l/m 2,1 km/h (1 Bft) SO 135 0 min 11,8 C 16,3 C 0,0 km/h (0 Bft)
06.10.2015 19:15 15,9 C 23,9 C 15,6 C 16,2 C 16,2 C 0,3 C 76 % 85 % 0 % 1006,1 hPa 0,0 l/m 1,9 km/h (1 Bft) O-NO 67 0 min 11,7 C 16,2 C 0,0 km/h (0 Bft)
06.10.2015 19:20 15,7 C 24,0 C 15,6 C 16,1 C 16,1 C 0,4 C 76 % 85 % 0 % 1006,1 hPa 0,0 l/m 1,8 km/h (1 Bft) O-NO 67 0 min 11,5 C 16,1 C 2,4 km/h (1 Bft)
06.10.2015 19:25 15,6 C 24,0 C 15,5 C 16,1 C 16,1 C 0,5 C 76 % 85 % 0 % 1006,1 hPa 0,0 l/m 2,3 km/h (1 Bft) O-NO 67 0 min 11,4 C 16,1 C 0,0 km/h (0 Bft)
06.10.2015 19:30 15,5 C 24,0 C 15,4 C 16,0 C 16,0 C 0,5 C 76 % 85 % 0 % 1006,1 hPa 0,0 l/m 2,3 km/h (1 Bft) O-SO 112 0 min 11,3 C 16,0 C 0,0 km/h (0 Bft)
06.10.2015 19:35 15,4 C 24,0 C 15,3 C 15,9 C 15,9 C 0,5 C 77 % 85 % 0 % 1006,1 hPa 0,0 l/m 1,0 km/h (0 Bft) NW 315 0 min 11,4 C 15,9 C 0,0 km/h (0 Bft)
06.10.2015 19:40 15,3 C 24,0 C 15,3 C 15,8 C 15,8 C 0,5 C 77 % 85 % 0 % 1006,1 hPa 0,0 l/m 0,8 km/h (0 Bft) O-NO 67 0 min 11,3 C 15,8 C 2,1 km/h (1 Bft)
06.10.2015 19:45 15,2 C 24,0 C 15,2 C 15,7 C 15,7 C 0,5 C 77 % 86 % 0 % 1006,1 hPa 0,0 l/m 0,8 km/h (0 Bft) O-NO 67 0 min 11,2 C 15,7 C 0,0 km/h (0 Bft)
06.10.2015 19:50 15,1 C 24,0 C 15,3 C 15,7 C 15,7 C 0,6 C 77 % 86 % 0 % 1006,1 hPa 0,0 l/m 0,6 km/h (0 Bft) S-SO 157 0 min 11,1 C 15,7 C 0,0 km/h (0 Bft)
06.10.2015 19:55 15,1 C 24,0 C 15,2 C 15,6 C 15,6 C 0,5 C 78 % 86 % 0 % 1005,9 hPa 0,0 l/m 0,0 km/h (0 Bft) S-SW 202 0 min 11,3 C 15,6 C 0,0 km/h (0 Bft)
06.10.2015 20:00 14,9 C 24,0 C 15,1 C 15,5 C 15,5 C 0,6 C 78 % 86 % 0 % 1005,9 hPa 0,0 l/m 0,0 km/h (0 Bft) S 180 0 min 11,1 C 15,5 C 0,0 km/h (0 Bft)
06.10.2015 20:05 14,8 C 24,0 C 15,1 C 15,4 C 15,4 C 0,6 C 78 % 86 % 0 % 1005,9 hPa 0,0 l/m 0,2 km/h (0 Bft) W-SW 247 0 min 11,0 C 15,4 C 0,0 km/h (0 Bft)
06.10.2015 20:10 14,7 C 24,0 C 15,0 C 15,4 C 15,4 C 0,7 C 78 % 86 % 0 % 1005,9 hPa 0,0 l/m 0,0 km/h (0 Bft) O-NO 67 0 min 10,9 C 15,4 C 0,0 km/h (0 Bft)
06.10.2015 20:15 14,7 C 24,0 C 14,9 C 15,4 C 15,4 C 0,7 C 79 % 86 % 0 % 1006,3 hPa 0,0 l/m 0,0 km/h (0 Bft) O-NO 67 0 min 11,1 C 15,4 C 0,0 km/h (0 Bft)
06.10.2015 20:20 14,6 C 24,0 C 14,9 C 15,4 C 15,4 C 0,8 C 79 % 86 % 0 % 1006,3 hPa 0,0 l/m 0,0 km/h (0 Bft) O-NO 67 0 min 11,0 C 15,4 C 0,0 km/h (0 Bft)
06.10.2015 20:25 14,5 C 24,0 C 14,9 C 15,3 C 15,3 C 0,8 C 79 % 87 % 0 % 1006,3 hPa 0,0 l/m 0,0 km/h (0 Bft) O-SO 112 0 min 10,9 C 15,3 C 0,0 km/h (0 Bft)
06.10.2015 20:30 14,4 C 24,1 C 14,8 C 15,2 C 15,2 C 0,8 C 79 % 87 % 0 % 1006,3 hPa 0,0 l/m 0,0 km/h (0 Bft) O 90 0 min 10,8 C 15,2 C 0,0 km/h (0 Bft)
06.10.2015 20:35 14,4 C 24,1 C 14,8 C 14,9 C 14,9 C 0,5 C 79 % 87 % 0 % 1007,2 hPa 0,0 l/m 0,0 km/h (0 Bft) O 90 0 min 10,8 C 14,9 C 0,0 km/h (0 Bft)
06.10.2015 20:40 14,3 C 24,2 C 14,7 C 14,7 C 14,7 C 0,4 C 79 % 87 % 0 % 1007,2 hPa 0,0 l/m 0,0 km/h (0 Bft) O 90 0 min 10,7 C 14,7 C 0,0 km/h (0 Bft)
06.10.2015 20:45 14,3 C 24,2 C 14,7 C 14,5 C 14,5 C 0,2 C 80 % 87 % 0 % 1007,2 hPa 0,0 l/m 0,0 km/h (0 Bft) O 90 0 min 10,9 C 14,5 C 0,0 km/h (0 Bft)
06.10.2015 20:50 14,2 C 24,3 C 14,4 C 14,4 C 14,4 C 0,2 C 80 % 88 % 0 % 1007,2 hPa 0,0 l/m 0,0 km/h (0 Bft) O 90 0 min 10,8 C 14,4 C 0,0 km/h (0 Bft)
06.10.2015 20:55 14,1 C 24,3 C 14,4 C 14,4 C 14,4 C 0,3 C 81 % 88 % 0 % 1006,2 hPa 0,0 l/m 0,0 km/h (0 Bft) N-NW 337 0 min 10,9 C 14,4 C 0,0 km/h (0 Bft)
06.10.2015 21:00 14,0 C 24,3 C 14,3 C 14,4 C 14,4 C 0,4 C 81 % 88 % 0 % 1006,2 hPa 0,0 l/m 0,0 km/h (0 Bft) NO 45 0 min 10,8 C 14,4 C 0,0 km/h (0 Bft)
06.10.2015 21:01 14,0 C 24,3 C 14,3 C 14,4 C 14,4 C 0,4 C 81 % 88 % 0 % 1006,2 hPa 0,0 l/m 0,0 km/h (0 Bft) NO 45 0 min 10,8 C 14,4 C 0,0 km/h (0 Bft)
06.10.2015 21:06 13,9 C 24,3 C 14,3 C 14,3 C 14,3 C 0,4 C 82 % 88 % 0 % 1006,2 hPa 0,0 l/m 0,0 km/h (0 Bft) NO 45 0 min 10,9 C 14,3 C 0,0 km/h (0 Bft)
06.10.2015 21:11 13,9 C 24,3 C 14,3 C 14,3 C 14,3 C 0,4 C 82 % 89 % 0 % 1006,3 hPa 0,0 l/m 0,0 km/h (0 Bft) N-NW 337 0 min 10,9 C 14,3 C 0,0 km/h (0 Bft)
06.10.2015 21:16 13,8 C 24,3 C 14,2 C 14,3 C 14,3 C 0,5 C 82 % 89 % 0 % 1006,3 hPa 0,0 l/m 0,0 km/h (0 Bft) N-NW 337 0 min 10,8 C 14,3 C 0,0 km/h (0 Bft)
06.10.2015 21:21 13,7 C 24,4 C 14,3 C 14,3 C 14,3 C 0,6 C 82 % 89 % 0 % 1006,3 hPa 0,0 l/m 0,0 km/h (0 Bft) N-NW 337 0 min 10,7 C 14,3 C 0,0 km/h (0 Bft)
06.10.2015 21:26 13,6 C 24,4 C 14,1 C 14,3 C 14,3 C 0,7 C 82 % 89 % 0 % 1006,3 hPa 0,0 l/m 0,0 km/h (0 Bft) N 360 0 min 10,6 C 14,3 C 0,0 km/h (0 Bft)
06.10.2015 21:31 13,6 C 24,4 C 14,1 C 14,3 C 14,3 C 0,7 C 83 % 89 % 0 % 1006,4 hPa 0,0 l/m 0,0 km/h (0 Bft) NO 45 0 min 10,8 C 14,3 C 0,0 km/h (0 Bft)
06.10.2015 21:35 13,6 C 24,4 C 14,1 C 14,3 C 14,3 C 0,7 C 83 % 89 % 0 % 1006,4 hPa 0,0 l/m 0,0 km/h (0 Bft) NO 45 0 min 10,8 C 14,3 C 0,0 km/h (0 Bft)
06.10.2015 21:40 13,6 C 24,4 C 14,1 C 14,3 C 14,3 C 0,7 C 83 % 89 % 0 % 1006,4 hPa 0,0 l/m 0,0 km/h (0 Bft) N-NO 22 0 min 10,8 C 14,3 C 0,0 km/h (0 Bft)
06.10.2015 21:45 13,7 C 24,3 C 14,0 C 14,3 C 14,3 C 0,6 C 84 % 89 % 0 % 1006,4 hPa 0,0 l/m 0,5 km/h (0 Bft) O-NO 67 0 min 11,0 C 14,3 C 2,1 km/h (1 Bft)
06.10.2015 21:50 13,6 C 24,3 C 14,1 C 14,4 C 14,4 C 0,8 C 84 % 89 % 0 % 1006,4 hPa 0,0 l/m 0,6 km/h (0 Bft) N-NW 337 0 min 10,9 C 14,4 C 0,0 km/h (0 Bft)
06.10.2015 21:55 13,6 C 24,4 C 14,1 C 14,4 C 14,4 C 0,8 C 84 % 89 % 0 % 1006,5 hPa 0,0 l/m 0,3 km/h (0 Bft) N-NW 337 0 min 10,9 C 14,4 C 0,0 km/h (0 Bft)
06.10.2015 22:00 13,6 C 24,4 C 14,0 C 14,4 C 14,4 C 0,8 C 84 % 89 % 0 % 1006,5 hPa 0,0 l/m 0,0 km/h (0 Bft) N-NO 22 0 min 10,9 C 14,4 C 0,0 km/h (0 Bft)
06.10.2015 22:01 13,5 C 24,3 C 14,0 C 14,3 C 14,3 C 0,8 C 84 % 89 % 0 % 1006,5 hPa 0,0 l/m 0,0 km/h (0 Bft) NO 45 0 min 10,8 C 14,3 C 0,0 km/h (0 Bft)
06.10.2015 22:06 13,5 C 24,3 C 13,9 C 14,2 C 14,2 C 0,7 C 84 % 89 % 0 % 1006,5 hPa 0,0 l/m 0,0 km/h (0 Bft) NO 45 0 min 10,8 C 14,2 C 0,0 km/h (0 Bft)
06.10.2015 22:07 13,5 C 24,3 C 13,9 C 14,2 C 14,2 C 0,7 C 84 % 89 % 0 % 1006,5 hPa 0,0 l/m 0,0 km/h (0 Bft) NO 45 0 min 10,8 C 14,2 C 0,0 km/h (0 Bft)
06.10.2015 22:10 13,5 C 24,3 C 13,9 C 14,2 C 14,2 C 0,7 C 84 % 89 % 0 % 1006,5 hPa 0,0 l/m 0,0 km/h (0 Bft) NO 45 0 min 10,8 C 14,2 C 0,0 km/h (0 Bft)
06.10.2015 22:15 13,5 C 24,3 C 13,6 C 14,0 C 14,0 C 0,5 C 84 % 89 % 0 % 1006,5 hPa 0,0 l/m 0,0 km/h (0 Bft) O-NO 67 0 min 10,8 C 14,0 C 0,0 km/h (0 Bft)
06.10.2015 22:20 13,4 C 24,3 C 13,6 C 14,0 C 14,0 C 0,6 C 84 % 89 % 0 % 1006,5 hPa 0,0 l/m 0,0 km/h (0 Bft) NO 45 0 min 10,8 C 14,0 C 0,0 km/h (0 Bft)
06.10.2015 22:25 13,2 C 24,3 C 13,5 C 13,8 C 13,8 C 0,6 C 84 % 89 % 0 % 1006,5 hPa 0,0 l/m 0,2 km/h (0 Bft) O-NO 67 0 min 10,6 C 13,8 C 0,0 km/h (0 Bft)
06.10.2015 22:30 13,2 C 24,3 C 13,5 C 13,8 C 13,8 C 0,6 C 84 % 89 % 0 % 1006,5 hPa 0,0 l/m 0,2 km/h (0 Bft) O-NO 67 0 min 10,6 C 13,8 C 0,0 km/h (0 Bft)
06.10.2015 22:35 13,1 C 24,3 C 13,3 C 13,6 C 13,6 C 0,5 C 85 % 89 % 0 % 1006,5 hPa 0,0 l/m 0,3 km/h (0 Bft) O 90 0 min 10,6 C 13,6 C 1,8 km/h (1 Bft)
06.10.2015 22:40 13,1 C 24,4 C 13,3 C 13,6 C 13,6 C 0,5 C 85 % 89 % 0 % 1006,5 hPa 0,0 l/m 0,3 km/h (0 Bft) N-NW 337 0 min 10,6 C 13,6 C 0,0 km/h (0 Bft)
06.10.2015 22:45 12,9 C 24,4 C 13,3 C 13,3 C 13,3 C 0,4 C 84 % 89 % 0 % 1006,5 hPa 0,0 l/m 0,2 km/h (0 Bft) W-SW 247 0 min 10,3 C 13,3 C 0,0 km/h (0 Bft)
06.10.2015 22:50 12,9 C 24,4 C 13,3 C 13,2 C 13,2 C 0,3 C 85 % 89 % 0 % 1006,5 hPa 0,0 l/m 0,0 km/h (0 Bft) O-NO 67 0 min 10,4 C 13,2 C 0,0 km/h (0 Bft)
06.10.2015 22:55 12,8 C 24,4 C 13,2 C 13,1 C 13,1 C 0,3 C 85 % 90 % 0 % 1006,4 hPa 0,0 l/m 0,0 km/h (0 Bft) O-NO 67 0 min 10,3 C 13,1 C 0,0 km/h (0 Bft)
06.10.2015 23:00 12,7 C 24,4 C 13,3 C 13,1 C 13,1 C 0,4 C 85 % 89 % 0 % 1006,4 hPa 0,0 l/m 0,0 km/h (0 Bft) O-NO 67 0 min 10,2 C 13,1 C 0,0 km/h (0 Bft)
06.10.2015 23:05 12,7 C 24,4 C 13,1 C 13,0 C 13,0 C 0,3 C 85 % 89 % 0 % 1006,4 hPa 0,0 l/m 0,0 km/h (0 Bft) O-NO 67 0 min 10,2 C 13,0 C 0,0 km/h (0 Bft)
06.10.2015 23:10 12,6 C 24,4 C 13,1 C 13,0 C 13,0 C 0,4 C 85 % 90 % 0 % 1006,4 hPa 0,0 l/m 0,0 km/h (0 Bft) NO 45 0 min 10,1 C 13,0 C 0,0 km/h (0 Bft)
06.10.2015 23:15 12,7 C 24,5 C 13,1 C 13,0 C 13,0 C 0,3 C 86 % 90 % 0 % 1006,4 hPa 0,0 l/m 0,0 km/h (0 Bft) O-NO 67 0 min 10,4 C 13,0 C 0,0 km/h (0 Bft)
06.10.2015 23:20 12,6 C 24,4 C 12,9 C 13,0 C 13,0 C 0,4 C 86 % 89 % 0 % 1006,4 hPa 0,0 l/m 0,0 km/h (0 Bft) O-NO 67 0 min 10,3 C 13,0 C 0,0 km/h (0 Bft)
06.10.2015 23:25 12,6 C 24,4 C 12,9 C 13,1 C 13,1 C 0,5 C 86 % 89 % 0 % 1006,4 hPa 0,0 l/m 0,5 km/h (0 Bft) O-NO 67 0 min 10,3 C 13,1 C 3,1 km/h (1 Bft)
06.10.2015 23:30 12,7 C 24,5 C 13,0 C 13,3 C 13,3 C 0,6 C 86 % 89 % 0 % 1006,4 hPa 0,0 l/m 1,1 km/h (1 Bft) O-NO 67 0 min 10,4 C 13,3 C 0,0 km/h (0 Bft)
06.10.2015 23:35 12,5 C 24,5 C 13,1 C 13,3 C 13,3 C 0,8 C 86 % 90 % 0 % 1006,4 hPa 0,0 l/m 0,8 km/h (0 Bft) O-NO 67 0 min 10,2 C 13,3 C 0,0 km/h (0 Bft)
06.10.2015 23:40 12,5 C 24,5 C 13,1 C 13,1 C 13,1 C 0,6 C 86 % 90 % 0 % 1006,4 hPa 0,0 l/m 0,0 km/h (0 Bft) O-NO 67 0 min 10,2 C 13,1 C 0,0 km/h (0 Bft)
06.10.2015 23:45 12,5 C 24,5 C 12,9 C 13,1 C 13,1 C 0,6 C 86 % 89 % 0 % 1006,4 hPa 0,0 l/m 0,6 km/h (0 Bft) O-NO 67 0 min 10,2 C 13,1 C 0,0 km/h (0 Bft)
06.10.2015 23:50 12,5 C 24,5 C 13,0 C 13,2 C 13,2 C 0,7 C 87 % 89 % 0 % 1006,4 hPa 0,0 l/m 0,8 km/h (0 Bft) NO 45 0 min 10,4 C 13,2 C 0,0 km/h (0 Bft)
06.10.2015 23:55 12,5 C 24,5 C 13,1 C 13,3 C 13,3 C 0,8 C 87 % 90 % 0 % 1006,5 hPa 0,0 l/m 0,3 km/h (0 Bft) O-NO 67 0 min 10,4 C 13,3 C 1,6 km/h (1 Bft)
_ Min-Zeit 03:15 13:15 03:10 02:55 02:55 00:35 16:05 10:15 00:00 17:15 - 00:00 - - - 03:15 02:55 00:00
Minimum _ 6,8 C 23,3 C 8,2 C 7,2 C 7,2 C 0,0 C 71 % 80 % 0 % 1005,9 hPa - 0,0 km/h (0 Bft) - - - 5,0 C 7,2 C 0,0 km/h (0 Bft)
_ Max-Zeit 16:50 23:15 15:55 15:30 15:30 13:30 10:10 00:41 13:25 00:00 00:00 18:41 - - 15:41 16:00 15:30 18:50
Maximum _ 19,3 C 24,5 C 18,4 C 23,5 C 23,5 C 5,7 C 93 % 90 % 100 % 1010,9 hPa 0,0 l/m 4,0 km/h
N (1 Bft)
- - 6 min 14,0 C 23,5 C 9,7 km/h
NO (2 Bft)
Durchschnitt _ 12,7 C 23,8 C 13,1 C 13,9 C 13,9 C 1,3 C 84 % 87 % 24 % 1007,8 hPa #0,0 l/m 0,6 km/h (0 Bft) O-NO - #2:46 h 9,9 C 13,9 C 0,9 km/h (0 Bft)
2015 www.wetterstation-wechselburg.de